sensor_id;sensor_type;location;lat;lon;timestamp;P1;durP1;ratioP1;P2;durP2;ratioP2
1591;SDS011;789;51.612;7.510;2023-09-30T00:01:36;12.67;;;5.60;;
1591;SDS011;789;51.612;7.510;2023-09-30T00:04:03;12.47;;;5.83;;
1591;SDS011;789;51.612;7.510;2023-09-30T00:06:32;14.63;;;6.13;;
1591;SDS011;789;51.612;7.510;2023-09-30T00:08:59;15.43;;;6.03;;
1591;SDS011;789;51.612;7.510;2023-09-30T00:11:27;12.27;;;5.53;;
1591;SDS011;789;51.612;7.510;2023-09-30T00:13:53;13.03;;;5.90;;
1591;SDS011;789;51.612;7.510;2023-09-30T00:16:20;13.97;;;5.57;;
1591;SDS011;789;51.612;7.510;2023-09-30T00:18:47;13.77;;;5.60;;
1591;SDS011;789;51.612;7.510;2023-09-30T00:21:14;10.43;;;5.23;;
1591;SDS011;789;51.612;7.510;2023-09-30T00:23:41;12.57;;;5.93;;
1591;SDS011;789;51.612;7.510;2023-09-30T00:26:08;14.80;;;5.30;;
1591;SDS011;789;51.612;7.510;2023-09-30T00:28:36;12.30;;;5.90;;
1591;SDS011;789;51.612;7.510;2023-09-30T00:31:06;14.33;;;6.07;;
1591;SDS011;789;51.612;7.510;2023-09-30T00:33:34;20.40;;;6.57;;
1591;SDS011;789;51.612;7.510;2023-09-30T00:36:05;13.17;;;6.17;;
1591;SDS011;789;51.612;7.510;2023-09-30T00:38:32;15.00;;;5.67;;
1591;SDS011;789;51.612;7.510;2023-09-30T00:40:59;13.27;;;5.53;;
1591;SDS011;789;51.612;7.510;2023-09-30T00:43:26;10.23;;;5.27;;
1591;SDS011;789;51.612;7.510;2023-09-30T00:45:57;10.00;;;5.70;;
1591;SDS011;789;51.612;7.510;2023-09-30T00:48:31;12.43;;;5.73;;
1591;SDS011;789;51.612;7.510;2023-09-30T00:51:00;15.13;;;5.97;;
1591;SDS011;789;51.612;7.510;2023-09-30T00:53:27;14.37;;;5.90;;
1591;SDS011;789;51.612;7.510;2023-09-30T00:55:54;18.17;;;6.17;;
1591;SDS011;789;51.612;7.510;2023-09-30T00:58:22;12.33;;;6.30;;
1591;SDS011;789;51.612;7.510;2023-09-30T01:00:55;15.40;;;6.27;;
1591;SDS011;789;51.612;7.510;2023-09-30T01:03:22;13.10;;;6.77;;
1591;SDS011;789;51.612;7.510;2023-09-30T01:05:49;17.97;;;6.60;;
1591;SDS011;789;51.612;7.510;2023-09-30T01:08:16;14.73;;;6.83;;
1591;SDS011;789;51.612;7.510;2023-09-30T01:10:45;16.83;;;6.37;;
1591;SDS011;789;51.612;7.510;2023-09-30T01:13:12;16.87;;;7.90;;
1591;SDS011;789;51.612;7.510;2023-09-30T01:15:39;16.73;;;7.00;;
1591;SDS011;789;51.612;7.510;2023-09-30T01:18:07;17.77;;;6.90;;
1591;SDS011;789;51.612;7.510;2023-09-30T01:20:34;17.53;;;7.40;;
1591;SDS011;789;51.612;7.510;2023-09-30T01:23:01;18.33;;;8.30;;
1591;SDS011;789;51.612;7.510;2023-09-30T01:25:28;13.40;;;6.50;;
1591;SDS011;789;51.612;7.510;2023-09-30T01:27:58;14.83;;;7.33;;
1591;SDS011;789;51.612;7.510;2023-09-30T01:30:31;14.10;;;6.20;;
1591;SDS011;789;51.612;7.510;2023-09-30T01:32:58;13.50;;;5.83;;
1591;SDS011;789;51.612;7.510;2023-09-30T01:35:27;15.33;;;6.67;;
1591;SDS011;789;51.612;7.510;2023-09-30T01:37:54;19.50;;;7.30;;
1591;SDS011;789;51.612;7.510;2023-09-30T01:40:22;15.07;;;6.30;;
1591;SDS011;789;51.612;7.510;2023-09-30T01:42:49;13.07;;;8.07;;
1591;SDS011;789;51.612;7.510;2023-09-30T01:45:15;17.67;;;10.03;;
1591;SDS011;789;51.612;7.510;2023-09-30T01:47:42;20.33;;;6.63;;
1591;SDS011;789;51.612;7.510;2023-09-30T01:50:09;18.90;;;6.83;;
1591;SDS011;789;51.612;7.510;2023-09-30T01:52:36;11.27;;;6.17;;
1591;SDS011;789;51.612;7.510;2023-09-30T01:55:03;15.63;;;5.90;;
1591;SDS011;789;51.612;7.510;2023-09-30T01:57:32;14.93;;;6.50;;
1591;SDS011;789;51.612;7.510;2023-09-30T01:59:59;12.10;;;5.97;;
1591;SDS011;789;51.612;7.510;2023-09-30T02:02:26;15.07;;;6.20;;
1591;SDS011;789;51.612;7.510;2023-09-30T02:04:53;11.43;;;6.47;;
1591;SDS011;789;51.612;7.510;2023-09-30T02:07:20;11.77;;;6.27;;
1591;SDS011;789;51.612;7.510;2023-09-30T02:09:46;13.97;;;6.70;;
1591;SDS011;789;51.612;7.510;2023-09-30T02:12:14;17.13;;;6.93;;
1591;SDS011;789;51.612;7.510;2023-09-30T02:14:42;13.60;;;6.60;;
1591;SDS011;789;51.612;7.510;2023-09-30T02:17:08;16.60;;;6.77;;
1591;SDS011;789;51.612;7.510;2023-09-30T02:19:36;12.27;;;6.97;;
1591;SDS011;789;51.612;7.510;2023-09-30T02:22:03;14.97;;;6.50;;
1591;SDS011;789;51.612;7.510;2023-09-30T02:24:30;10.77;;;6.10;;
1591;SDS011;789;51.612;7.510;2023-09-30T02:26:57;12.27;;;6.70;;
1591;SDS011;789;51.612;7.510;2023-09-30T02:29:24;14.30;;;6.80;;
1591;SDS011;789;51.612;7.510;2023-09-30T02:31:52;11.20;;;6.87;;
1591;SDS011;789;51.612;7.510;2023-09-30T02:34:20;14.20;;;7.40;;
1591;SDS011;789;51.612;7.510;2023-09-30T02:36:47;15.53;;;6.87;;
1591;SDS011;789;51.612;7.510;2023-09-30T02:39:17;12.53;;;6.93;;
1591;SDS011;789;51.612;7.510;2023-09-30T02:41:44;14.07;;;7.83;;
1591;SDS011;789;51.612;7.510;2023-09-30T02:44:11;18.03;;;7.80;;
1591;SDS011;789;51.612;7.510;2023-09-30T02:46:38;14.97;;;7.90;;
1591;SDS011;789;51.612;7.510;2023-09-30T02:49:06;15.87;;;7.73;;
1591;SDS011;789;51.612;7.510;2023-09-30T02:51:33;16.00;;;7.07;;
1591;SDS011;789;51.612;7.510;2023-09-30T02:54:00;15.23;;;7.40;;
1591;SDS011;789;51.612;7.510;2023-09-30T02:56:29;16.03;;;7.23;;
1591;SDS011;789;51.612;7.510;2023-09-30T02:58:56;15.30;;;7.43;;
1591;SDS011;789;51.612;7.510;2023-09-30T03:01:24;14.37;;;6.83;;
1591;SDS011;789;51.612;7.510;2023-09-30T03:03:51;14.73;;;6.63;;
1591;SDS011;789;51.612;7.510;2023-09-30T03:06:19;15.47;;;8.13;;
1591;SDS011;789;51.612;7.510;2023-09-30T03:08:46;16.83;;;7.50;;
1591;SDS011;789;51.612;7.510;2023-09-30T03:11:13;11.73;;;7.40;;
1591;SDS011;789;51.612;7.510;2023-09-30T03:13:40;14.03;;;7.87;;
1591;SDS011;789;51.612;7.510;2023-09-30T03:16:07;14.57;;;8.07;;
1591;SDS011;789;51.612;7.510;2023-09-30T03:18:34;16.27;;;7.50;;
1591;SDS011;789;51.612;7.510;2023-09-30T03:21:02;17.63;;;8.03;;
1591;SDS011;789;51.612;7.510;2023-09-30T03:23:34;16.07;;;7.60;;
1591;SDS011;789;51.612;7.510;2023-09-30T03:26:03;19.10;;;7.70;;
1591;SDS011;789;51.612;7.510;2023-09-30T03:28:34;16.90;;;8.10;;
1591;SDS011;789;51.612;7.510;2023-09-30T03:31:03;13.33;;;6.93;;
1591;SDS011;789;51.612;7.510;2023-09-30T03:33:31;17.73;;;8.30;;
1591;SDS011;789;51.612;7.510;2023-09-30T03:35:58;24.53;;;8.80;;
1591;SDS011;789;51.612;7.510;2023-09-30T03:38:25;25.17;;;8.53;;
1591;SDS011;789;51.612;7.510;2023-09-30T03:40:54;20.07;;;7.37;;
1591;SDS011;789;51.612;7.510;2023-09-30T03:43:22;13.80;;;7.40;;
1591;SDS011;789;51.612;7.510;2023-09-30T03:45:50;20.00;;;7.97;;
1591;SDS011;789;51.612;7.510;2023-09-30T03:48:18;18.03;;;7.07;;
1591;SDS011;789;51.612;7.510;2023-09-30T03:50:44;12.87;;;7.47;;
1591;SDS011;789;51.612;7.510;2023-09-30T03:53:11;16.33;;;7.00;;
1591;SDS011;789;51.612;7.510;2023-09-30T03:55:38;15.60;;;7.90;;
1591;SDS011;789;51.612;7.510;2023-09-30T03:58:07;12.17;;;6.70;;
1591;SDS011;789;51.612;7.510;2023-09-30T04:00:33;17.43;;;7.80;;
1591;SDS011;789;51.612;7.510;2023-09-30T04:03:00;18.93;;;6.77;;
1591;SDS011;789;51.612;7.510;2023-09-30T04:05:27;20.00;;;7.10;;
1591;SDS011;789;51.612;7.510;2023-09-30T04:07:57;15.43;;;7.23;;
1591;SDS011;789;51.612;7.510;2023-09-30T04:10:23;14.73;;;6.87;;
1591;SDS011;789;51.612;7.510;2023-09-30T04:12:50;18.30;;;6.83;;
1591;SDS011;789;51.612;7.510;2023-09-30T04:15:18;21.10;;;7.37;;
1591;SDS011;789;51.612;7.510;2023-09-30T04:17:48;18.63;;;7.87;;
1591;SDS011;789;51.612;7.510;2023-09-30T04:20:16;14.93;;;7.00;;
1591;SDS011;789;51.612;7.510;2023-09-30T04:22:46;15.50;;;7.07;;
1591;SDS011;789;51.612;7.510;2023-09-30T04:25:14;14.50;;;6.67;;
1591;SDS011;789;51.612;7.510;2023-09-30T04:27:43;14.47;;;6.80;;
1591;SDS011;789;51.612;7.510;2023-09-30T04:30:12;18.57;;;8.43;;
1591;SDS011;789;51.612;7.510;2023-09-30T04:32:41;13.63;;;7.10;;
1591;SDS011;789;51.612;7.510;2023-09-30T04:35:09;16.10;;;6.77;;
1591;SDS011;789;51.612;7.510;2023-09-30T04:37:37;13.60;;;6.37;;
1591;SDS011;789;51.612;7.510;2023-09-30T04:40:04;15.33;;;7.20;;
1591;SDS011;789;51.612;7.510;2023-09-30T04:42:40;16.27;;;7.73;;
1591;SDS011;789;51.612;7.510;2023-09-30T04:45:07;15.97;;;7.60;;
1591;SDS011;789;51.612;7.510;2023-09-30T04:47:35;13.47;;;7.40;;
1591;SDS011;789;51.612;7.510;2023-09-30T04:50:06;13.60;;;6.70;;
1591;SDS011;789;51.612;7.510;2023-09-30T04:52:34;14.93;;;6.87;;
1591;SDS011;789;51.612;7.510;2023-09-30T04:55:00;16.00;;;6.90;;
1591;SDS011;789;51.612;7.510;2023-09-30T04:57:28;14.10;;;7.23;;
1591;SDS011;789;51.612;7.510;2023-09-30T04:59:55;13.30;;;7.00;;
1591;SDS011;789;51.612;7.510;2023-09-30T05:02:22;13.70;;;6.67;;
1591;SDS011;789;51.612;7.510;2023-09-30T05:04:49;12.93;;;6.40;;
1591;SDS011;789;51.612;7.510;2023-09-30T05:07:18;15.70;;;7.17;;
1591;SDS011;789;51.612;7.510;2023-09-30T05:09:46;15.83;;;6.73;;
1591;SDS011;789;51.612;7.510;2023-09-30T05:12:13;14.43;;;6.40;;
1591;SDS011;789;51.612;7.510;2023-09-30T05:14:41;11.77;;;7.17;;
1591;SDS011;789;51.612;7.510;2023-09-30T05:17:08;11.20;;;5.90;;
1591;SDS011;789;51.612;7.510;2023-09-30T05:19:35;16.80;;;6.67;;
1591;SDS011;789;51.612;7.510;2023-09-30T05:22:02;11.57;;;6.40;;
1591;SDS011;789;51.612;7.510;2023-09-30T05:24:31;14.50;;;7.27;;
1591;SDS011;789;51.612;7.510;2023-09-30T05:26:59;13.70;;;7.17;;
1591;SDS011;789;51.612;7.510;2023-09-30T05:29:29;11.00;;;6.10;;
1591;SDS011;789;51.612;7.510;2023-09-30T05:31:58;15.37;;;6.63;;
1591;SDS011;789;51.612;7.510;2023-09-30T05:34:25;13.50;;;7.40;;
1591;SDS011;789;51.612;7.510;2023-09-30T05:36:53;14.10;;;7.30;;
1591;SDS011;789;51.612;7.510;2023-09-30T05:39:19;15.50;;;6.90;;
1591;SDS011;789;51.612;7.510;2023-09-30T05:41:47;12.93;;;6.40;;
1591;SDS011;789;51.612;7.510;2023-09-30T05:44:14;13.70;;;6.20;;
1591;SDS011;789;51.612;7.510;2023-09-30T05:46:41;22.80;;;6.83;;
1591;SDS011;789;51.612;7.510;2023-09-30T05:49:09;15.47;;;5.93;;
1591;SDS011;789;51.612;7.510;2023-09-30T05:51:38;11.47;;;5.73;;
1591;SDS011;789;51.612;7.510;2023-09-30T05:54:06;18.80;;;6.70;;
1591;SDS011;789;51.612;7.510;2023-09-30T05:56:34;15.10;;;5.80;;
1591;SDS011;789;51.612;7.510;2023-09-30T05:59:03;15.03;;;6.40;;
1591;SDS011;789;51.612;7.510;2023-09-30T06:01:31;13.90;;;5.60;;
1591;SDS011;789;51.612;7.510;2023-09-30T06:03:58;16.70;;;5.30;;
1591;SDS011;789;51.612;7.510;2023-09-30T06:06:26;19.33;;;6.70;;
1591;SDS011;789;51.612;7.510;2023-09-30T06:08:54;11.97;;;5.30;;
1591;SDS011;789;51.612;7.510;2023-09-30T06:11:23;18.53;;;5.90;;
1591;SDS011;789;51.612;7.510;2023-09-30T06:13:53;15.83;;;6.00;;
1591;SDS011;789;51.612;7.510;2023-09-30T06:16:21;15.43;;;6.40;;
1591;SDS011;789;51.612;7.510;2023-09-30T06:18:48;28.87;;;7.30;;
1591;SDS011;789;51.612;7.510;2023-09-30T06:21:16;25.33;;;7.77;;
1591;SDS011;789;51.612;7.510;2023-09-30T06:23:45;16.27;;;6.20;;
1591;SDS011;789;51.612;7.510;2023-09-30T06:26:13;15.37;;;6.60;;
1591;SDS011;789;51.612;7.510;2023-09-30T06:28:41;14.33;;;7.20;;
1591;SDS011;789;51.612;7.510;2023-09-30T06:31:08;15.73;;;6.30;;
1591;SDS011;789;51.612;7.510;2023-09-30T06:33:37;12.03;;;5.70;;
1591;SDS011;789;51.612;7.510;2023-09-30T06:36:07;12.50;;;6.40;;
1591;SDS011;789;51.612;7.510;2023-09-30T06:38:35;14.33;;;6.30;;
1591;SDS011;789;51.612;7.510;2023-09-30T06:41:03;14.67;;;6.73;;
1591;SDS011;789;51.612;7.510;2023-09-30T06:43:30;11.60;;;6.00;;
1591;SDS011;789;51.612;7.510;2023-09-30T06:45:57;13.40;;;6.10;;
1591;SDS011;789;51.612;7.510;2023-09-30T06:48:25;12.37;;;6.10;;
1591;SDS011;789;51.612;7.510;2023-09-30T06:50:54;17.27;;;6.93;;
1591;SDS011;789;51.612;7.510;2023-09-30T06:53:21;15.30;;;6.27;;
1591;SDS011;789;51.612;7.510;2023-09-30T06:55:48;12.00;;;5.97;;
1591;SDS011;789;51.612;7.510;2023-09-30T06:58:16;13.67;;;6.47;;
1591;SDS011;789;51.612;7.510;2023-09-30T07:00:46;10.60;;;5.70;;
1591;SDS011;789;51.612;7.510;2023-09-30T07:03:14;19.37;;;6.30;;
1591;SDS011;789;51.612;7.510;2023-09-30T07:05:41;19.03;;;6.67;;
1591;SDS011;789;51.612;7.510;2023-09-30T07:08:12;15.83;;;6.00;;
1591;SDS011;789;51.612;7.510;2023-09-30T07:10:38;10.27;;;5.60;;
1591;SDS011;789;51.612;7.510;2023-09-30T07:13:05;11.60;;;5.57;;
1591;SDS011;789;51.612;7.510;2023-09-30T07:15:32;13.80;;;6.90;;
1591;SDS011;789;51.612;7.510;2023-09-30T07:17:59;13.03;;;5.70;;
1591;SDS011;789;51.612;7.510;2023-09-30T07:20:29;15.40;;;6.07;;
1591;SDS011;789;51.612;7.510;2023-09-30T07:23:08;17.33;;;5.70;;
1591;SDS011;789;51.612;7.510;2023-09-30T07:25:36;15.40;;;6.73;;
1591;SDS011;789;51.612;7.510;2023-09-30T07:28:03;13.77;;;5.53;;
1591;SDS011;789;51.612;7.510;2023-09-30T07:30:36;12.80;;;5.90;;
1591;SDS011;789;51.612;7.510;2023-09-30T07:36:01;19.73;;;6.60;;
1591;SDS011;789;51.612;7.510;2023-09-30T07:38:29;15.03;;;5.60;;
1591;SDS011;789;51.612;7.510;2023-09-30T07:40:57;12.83;;;5.67;;
1591;SDS011;789;51.612;7.510;2023-09-30T07:43:24;12.10;;;6.20;;
1591;SDS011;789;51.612;7.510;2023-09-30T07:45:50;14.60;;;6.50;;
1591;SDS011;789;51.612;7.510;2023-09-30T07:48:17;12.23;;;6.43;;
1591;SDS011;789;51.612;7.510;2023-09-30T07:50:46;14.63;;;6.40;;
1591;SDS011;789;51.612;7.510;2023-09-30T07:53:13;10.57;;;5.50;;
1591;SDS011;789;51.612;7.510;2023-09-30T07:55:40;19.13;;;6.93;;
1591;SDS011;789;51.612;7.510;2023-09-30T07:58:08;13.33;;;5.53;;
1591;SDS011;789;51.612;7.510;2023-09-30T08:00:34;11.10;;;6.30;;
1591;SDS011;789;51.612;7.510;2023-09-30T08:03:01;9.77;;;6.07;;
1591;SDS011;789;51.612;7.510;2023-09-30T08:05:29;9.80;;;5.90;;
1591;SDS011;789;51.612;7.510;2023-09-30T08:07:56;10.17;;;5.60;;
1591;SDS011;789;51.612;7.510;2023-09-30T08:10:23;11.33;;;6.07;;
1591;SDS011;789;51.612;7.510;2023-09-30T08:12:50;11.93;;;6.53;;
1591;SDS011;789;51.612;7.510;2023-09-30T08:15:19;12.20;;;6.10;;
1591;SDS011;789;51.612;7.510;2023-09-30T08:17:46;9.30;;;5.57;;
1591;SDS011;789;51.612;7.510;2023-09-30T08:20:13;12.90;;;5.73;;
1591;SDS011;789;51.612;7.510;2023-09-30T08:22:44;13.10;;;5.17;;
1591;SDS011;789;51.612;7.510;2023-09-30T08:25:11;9.00;;;4.77;;
1591;SDS011;789;51.612;7.510;2023-09-30T08:27:38;10.03;;;5.40;;
1591;SDS011;789;51.612;7.510;2023-09-30T08:30:05;13.43;;;6.00;;
1591;SDS011;789;51.612;7.510;2023-09-30T08:32:34;14.87;;;5.70;;
1591;SDS011;789;51.612;7.510;2023-09-30T08:35:01;11.17;;;5.40;;
1591;SDS011;789;51.612;7.510;2023-09-30T08:37:29;9.17;;;5.70;;
1591;SDS011;789;51.612;7.510;2023-09-30T08:39:56;11.20;;;5.30;;
1591;SDS011;789;51.612;7.510;2023-09-30T08:42:23;9.63;;;5.53;;
1591;SDS011;789;51.612;7.510;2023-09-30T08:44:50;10.03;;;5.93;;
1591;SDS011;789;51.612;7.510;2023-09-30T08:47:19;13.87;;;6.03;;
1591;SDS011;789;51.612;7.510;2023-09-30T08:49:50;10.13;;;5.20;;
1591;SDS011;789;51.612;7.510;2023-09-30T08:52:22;9.90;;;5.50;;
1591;SDS011;789;51.612;7.510;2023-09-30T08:54:50;8.13;;;5.27;;
1591;SDS011;789;51.612;7.510;2023-09-30T08:57:18;9.13;;;6.00;;
1591;SDS011;789;51.612;7.510;2023-09-30T08:59:46;11.50;;;5.20;;
1591;SDS011;789;51.612;7.510;2023-09-30T09:02:14;9.03;;;5.70;;
1591;SDS011;789;51.612;7.510;2023-09-30T09:04:41;12.33;;;4.80;;
1591;SDS011;789;51.612;7.510;2023-09-30T09:07:10;9.80;;;4.63;;
1591;SDS011;789;51.612;7.510;2023-09-30T09:09:37;8.90;;;5.53;;
1591;SDS011;789;51.612;7.510;2023-09-30T09:12:05;13.03;;;5.80;;
1591;SDS011;789;51.612;7.510;2023-09-30T09:14:37;9.10;;;4.73;;
1591;SDS011;789;51.612;7.510;2023-09-30T09:17:06;11.57;;;4.87;;
1591;SDS011;789;51.612;7.510;2023-09-30T09:19:37;8.10;;;5.37;;
1591;SDS011;789;51.612;7.510;2023-09-30T09:22:03;8.10;;;4.63;;
1591;SDS011;789;51.612;7.510;2023-09-30T09:24:33;14.50;;;4.83;;
1591;SDS011;789;51.612;7.510;2023-09-30T09:27:05;7.27;;;3.80;;
1591;SDS011;789;51.612;7.510;2023-09-30T09:29:33;10.50;;;4.73;;
1591;SDS011;789;51.612;7.510;2023-09-30T09:32:12;7.63;;;4.00;;
1591;SDS011;789;51.612;7.510;2023-09-30T09:34:40;9.63;;;5.20;;
1591;SDS011;789;51.612;7.510;2023-09-30T09:37:15;9.27;;;5.17;;
1591;SDS011;789;51.612;7.510;2023-09-30T09:39:53;9.87;;;4.93;;
1591;SDS011;789;51.612;7.510;2023-09-30T09:42:25;5.70;;;3.90;;
1591;SDS011;789;51.612;7.510;2023-09-30T09:44:54;7.90;;;4.30;;
1591;SDS011;789;51.612;7.510;2023-09-30T09:47:23;6.30;;;3.77;;
1591;SDS011;789;51.612;7.510;2023-09-30T09:49:51;7.60;;;4.53;;
1591;SDS011;789;51.612;7.510;2023-09-30T09:52:19;7.20;;;4.20;;
1591;SDS011;789;51.612;7.510;2023-09-30T09:54:47;7.40;;;4.10;;
1591;SDS011;789;51.612;7.510;2023-09-30T09:57:17;7.03;;;4.07;;
1591;SDS011;789;51.612;7.510;2023-09-30T09:59:45;8.73;;;4.30;;
1591;SDS011;789;51.612;7.510;2023-09-30T10:02:13;7.17;;;4.40;;
1591;SDS011;789;51.612;7.510;2023-09-30T10:04:41;9.53;;;4.50;;
1591;SDS011;789;51.612;7.510;2023-09-30T10:07:10;5.97;;;3.20;;
1591;SDS011;789;51.612;7.510;2023-09-30T10:09:41;7.30;;;3.50;;
1591;SDS011;789;51.612;7.510;2023-09-30T10:12:13;4.87;;;3.60;;
1591;SDS011;789;51.612;7.510;2023-09-30T10:14:42;8.80;;;4.07;;
1591;SDS011;789;51.612;7.510;2023-09-30T10:17:12;9.50;;;4.10;;
1591;SDS011;789;51.612;7.510;2023-09-30T10:22:31;6.00;;;3.70;;
1591;SDS011;789;51.612;7.510;2023-09-30T10:24:58;5.63;;;3.70;;
1591;SDS011;789;51.612;7.510;2023-09-30T10:27:29;5.30;;;3.60;;
1591;SDS011;789;51.612;7.510;2023-09-30T10:30:10;7.40;;;4.00;;
1591;SDS011;789;51.612;7.510;2023-09-30T10:35:48;7.03;;;4.17;;
1591;SDS011;789;51.612;7.510;2023-09-30T10:38:36;8.27;;;4.40;;
1591;SDS011;789;51.612;7.510;2023-09-30T10:41:07;6.57;;;4.03;;
1591;SDS011;789;51.612;7.510;2023-09-30T10:43:35;6.70;;;4.03;;
1591;SDS011;789;51.612;7.510;2023-09-30T10:46:04;6.73;;;4.57;;
1591;SDS011;789;51.612;7.510;2023-09-30T10:48:57;5.37;;;3.80;;
1591;SDS011;789;51.612;7.510;2023-09-30T10:51:42;6.90;;;4.50;;
1591;SDS011;789;51.612;7.510;2023-09-30T10:54:09;6.50;;;3.90;;
1591;SDS011;789;51.612;7.510;2023-09-30T10:56:39;9.87;;;5.33;;
1591;SDS011;789;51.612;7.510;2023-09-30T10:59:06;5.27;;;3.90;;
1591;SDS011;789;51.612;7.510;2023-09-30T11:01:41;4.77;;;3.57;;
1591;SDS011;789;51.612;7.510;2023-09-30T11:04:24;5.47;;;3.63;;
1591;SDS011;789;51.612;7.510;2023-09-30T11:06:53;5.20;;;3.43;;
1591;SDS011;789;51.612;7.510;2023-09-30T11:09:21;5.00;;;3.80;;
1591;SDS011;789;51.612;7.510;2023-09-30T11:11:49;7.50;;;3.90;;
1591;SDS011;789;51.612;7.510;2023-09-30T11:14:22;9.00;;;4.30;;
1591;SDS011;789;51.612;7.510;2023-09-30T11:16:54;7.10;;;4.70;;
1591;SDS011;789;51.612;7.510;2023-09-30T11:19:27;7.37;;;4.30;;
1591;SDS011;789;51.612;7.510;2023-09-30T11:21:59;6.40;;;3.87;;
1591;SDS011;789;51.612;7.510;2023-09-30T11:24:27;5.53;;;4.23;;
1591;SDS011;789;51.612;7.510;2023-09-30T11:26:54;7.07;;;4.07;;
1591;SDS011;789;51.612;7.510;2023-09-30T11:29:21;5.77;;;3.50;;
1591;SDS011;789;51.612;7.510;2023-09-30T11:31:48;6.57;;;4.73;;
1591;SDS011;789;51.612;7.510;2023-09-30T11:34:17;11.07;;;7.80;;
1591;SDS011;789;51.612;7.510;2023-09-30T11:36:47;7.33;;;3.77;;
1591;SDS011;789;51.612;7.510;2023-09-30T11:39:21;5.03;;;3.67;;
1591;SDS011;789;51.612;7.510;2023-09-30T11:41:54;5.20;;;3.83;;
1591;SDS011;789;51.612;7.510;2023-09-30T11:44:22;5.60;;;3.77;;
1591;SDS011;789;51.612;7.510;2023-09-30T11:46:51;6.33;;;3.47;;
1591;SDS011;789;51.612;7.510;2023-09-30T11:49:25;8.33;;;4.00;;
1591;SDS011;789;51.612;7.510;2023-09-30T11:51:57;6.60;;;4.17;;
1591;SDS011;789;51.612;7.510;2023-09-30T11:54:28;8.30;;;4.00;;
1591;SDS011;789;51.612;7.510;2023-09-30T11:56:55;8.87;;;3.70;;
1591;SDS011;789;51.612;7.510;2023-09-30T11:59:22;7.57;;;3.70;;
1591;SDS011;789;51.612;7.510;2023-09-30T12:01:49;5.00;;;3.20;;
1591;SDS011;789;51.612;7.510;2023-09-30T12:04:18;6.40;;;3.80;;
1591;SDS011;789;51.612;7.510;2023-09-30T12:06:50;5.27;;;3.20;;
1591;SDS011;789;51.612;7.510;2023-09-30T12:09:18;4.93;;;2.80;;
1591;SDS011;789;51.612;7.510;2023-09-30T12:11:47;10.03;;;3.77;;
1591;SDS011;789;51.612;7.510;2023-09-30T12:14:14;9.83;;;4.60;;
1591;SDS011;789;51.612;7.510;2023-09-30T12:16:45;10.60;;;3.57;;
1591;SDS011;789;51.612;7.510;2023-09-30T12:19:15;8.03;;;3.57;;
1591;SDS011;789;51.612;7.510;2023-09-30T12:21:44;18.30;;;4.57;;
1591;SDS011;789;51.612;7.510;2023-09-30T12:24:13;7.20;;;3.43;;
1591;SDS011;789;51.612;7.510;2023-09-30T12:26:42;5.57;;;3.73;;
1591;SDS011;789;51.612;7.510;2023-09-30T12:31:58;6.90;;;3.90;;
1591;SDS011;789;51.612;7.510;2023-09-30T12:34:26;5.30;;;3.70;;
1591;SDS011;789;51.612;7.510;2023-09-30T12:36:54;10.43;;;4.07;;
1591;SDS011;789;51.612;7.510;2023-09-30T12:39:21;14.73;;;5.17;;
1591;SDS011;789;51.612;7.510;2023-09-30T12:41:58;10.03;;;4.37;;
1591;SDS011;789;51.612;7.510;2023-09-30T12:44:26;9.67;;;4.03;;
1591;SDS011;789;51.612;7.510;2023-09-30T12:46:57;9.07;;;3.57;;
1591;SDS011;789;51.612;7.510;2023-09-30T12:49:27;9.40;;;3.20;;
1591;SDS011;789;51.612;7.510;2023-09-30T12:51:58;7.87;;;3.93;;
1591;SDS011;789;51.612;7.510;2023-09-30T12:54:27;5.97;;;3.50;;
1591;SDS011;789;51.612;7.510;2023-09-30T12:56:56;5.07;;;3.30;;
1591;SDS011;789;51.612;7.510;2023-09-30T12:59:29;7.40;;;3.77;;
1591;SDS011;789;51.612;7.510;2023-09-30T13:01:55;6.07;;;3.17;;
1591;SDS011;789;51.612;7.510;2023-09-30T13:04:25;7.70;;;4.07;;
1591;SDS011;789;51.612;7.510;2023-09-30T13:06:52;7.57;;;3.80;;
1591;SDS011;789;51.612;7.510;2023-09-30T13:09:21;6.30;;;3.43;;
1591;SDS011;789;51.612;7.510;2023-09-30T13:11:48;6.90;;;3.30;;
1591;SDS011;789;51.612;7.510;2023-09-30T13:14:17;4.60;;;3.50;;
1591;SDS011;789;51.612;7.510;2023-09-30T13:16:43;8.63;;;3.50;;
1591;SDS011;789;51.612;7.510;2023-09-30T13:19:10;4.87;;;3.17;;
1591;SDS011;789;51.612;7.510;2023-09-30T13:21:38;7.23;;;3.50;;
1591;SDS011;789;51.612;7.510;2023-09-30T13:24:10;6.70;;;3.00;;
1591;SDS011;789;51.612;7.510;2023-09-30T13:26:42;9.50;;;3.57;;
1591;SDS011;789;51.612;7.510;2023-09-30T13:29:12;7.33;;;4.13;;
1591;SDS011;789;51.612;7.510;2023-09-30T13:31:56;5.50;;;3.90;;
1591;SDS011;789;51.612;7.510;2023-09-30T13:34:32;6.13;;;3.40;;
1591;SDS011;789;51.612;7.510;2023-09-30T13:36:59;5.60;;;3.70;;
1591;SDS011;789;51.612;7.510;2023-09-30T13:39:35;6.00;;;4.17;;
1591;SDS011;789;51.612;7.510;2023-09-30T13:42:03;5.30;;;3.53;;
1591;SDS011;789;51.612;7.510;2023-09-30T13:44:34;6.37;;;3.90;;
1591;SDS011;789;51.612;7.510;2023-09-30T13:49:47;7.70;;;4.33;;
1591;SDS011;789;51.612;7.510;2023-09-30T13:52:17;8.03;;;4.60;;
1591;SDS011;789;51.612;7.510;2023-09-30T13:54:54;7.93;;;4.80;;
1591;SDS011;789;51.612;7.510;2023-09-30T14:00:16;7.90;;;4.83;;
1591;SDS011;789;51.612;7.510;2023-09-30T14:02:43;5.90;;;4.20;;
1591;SDS011;789;51.612;7.510;2023-09-30T14:05:12;6.60;;;4.10;;
1591;SDS011;789;51.612;7.510;2023-09-30T14:07:52;8.90;;;4.53;;
1591;SDS011;789;51.612;7.510;2023-09-30T14:10:19;5.87;;;3.93;;
1591;SDS011;789;51.612;7.510;2023-09-30T14:12:47;7.37;;;4.30;;
1591;SDS011;789;51.612;7.510;2023-09-30T14:17:21;5.33;;;4.03;;
1591;SDS011;789;51.612;7.510;2023-09-30T14:18:18;8.00;;;4.20;;
1591;SDS011;789;51.612;7.510;2023-09-30T14:20:45;7.57;;;4.83;;
1591;SDS011;789;51.612;7.510;2023-09-30T14:23:12;6.87;;;4.67;;
1591;SDS011;789;51.612;7.510;2023-09-30T14:25:39;8.33;;;4.30;;
1591;SDS011;789;51.612;7.510;2023-09-30T14:28:07;6.90;;;4.57;;
1591;SDS011;789;51.612;7.510;2023-09-30T14:30:35;5.90;;;3.83;;
1591;SDS011;789;51.612;7.510;2023-09-30T14:33:02;6.70;;;4.10;;
1591;SDS011;789;51.612;7.510;2023-09-30T14:35:32;4.70;;;3.77;;
1591;SDS011;789;51.612;7.510;2023-09-30T14:38:01;7.07;;;3.87;;
1591;SDS011;789;51.612;7.510;2023-09-30T14:40:32;10.13;;;7.50;;
1591;SDS011;789;51.612;7.510;2023-09-30T14:43:04;10.73;;;5.33;;
1591;SDS011;789;51.612;7.510;2023-09-30T14:45:36;5.97;;;3.50;;
1591;SDS011;789;51.612;7.510;2023-09-30T14:48:04;10.03;;;4.60;;
1591;SDS011;789;51.612;7.510;2023-09-30T14:50:32;9.70;;;4.03;;
1591;SDS011;789;51.612;7.510;2023-09-30T14:52:59;5.30;;;3.63;;
1591;SDS011;789;51.612;7.510;2023-09-30T14:55:26;9.60;;;4.47;;
1591;SDS011;789;51.612;7.510;2023-09-30T14:57:57;4.90;;;3.80;;
1591;SDS011;789;51.612;7.510;2023-09-30T15:00:23;6.00;;;3.80;;
1591;SDS011;789;51.612;7.510;2023-09-30T15:02:54;7.40;;;4.30;;
1591;SDS011;789;51.612;7.510;2023-09-30T15:05:21;6.37;;;3.53;;
1591;SDS011;789;51.612;7.510;2023-09-30T15:07:49;5.53;;;3.60;;
1591;SDS011;789;51.612;7.510;2023-09-30T15:10:15;7.57;;;4.57;;
1591;SDS011;789;51.612;7.510;2023-09-30T15:12:44;5.80;;;3.77;;
1591;SDS011;789;51.612;7.510;2023-09-30T15:15:11;7.70;;;4.43;;
1591;SDS011;789;51.612;7.510;2023-09-30T15:17:39;6.83;;;3.70;;
1591;SDS011;789;51.612;7.510;2023-09-30T15:20:09;7.93;;;4.43;;
1591;SDS011;789;51.612;7.510;2023-09-30T15:22:36;7.27;;;4.27;;
1591;SDS011;789;51.612;7.510;2023-09-30T15:25:04;5.47;;;4.23;;
1591;SDS011;789;51.612;7.510;2023-09-30T15:27:31;9.90;;;4.27;;
1591;SDS011;789;51.612;7.510;2023-09-30T15:29:58;6.70;;;4.80;;
1591;SDS011;789;51.612;7.510;2023-09-30T15:32:25;5.60;;;4.47;;
1591;SDS011;789;51.612;7.510;2023-09-30T15:34:55;6.73;;;4.50;;
1591;SDS011;789;51.612;7.510;2023-09-30T15:37:23;6.57;;;3.73;;
1591;SDS011;789;51.612;7.510;2023-09-30T15:39:53;5.87;;;4.43;;
1591;SDS011;789;51.612;7.510;2023-09-30T15:42:23;6.30;;;3.63;;
1591;SDS011;789;51.612;7.510;2023-09-30T15:44:58;8.27;;;3.90;;
1591;SDS011;789;51.612;7.510;2023-09-30T15:47:32;6.70;;;4.47;;
1591;SDS011;789;51.612;7.510;2023-09-30T15:50:02;5.70;;;4.10;;